createdAt,value
2017-09-13T00:01:05.404Z,0
2017-09-13T00:02:14.686Z,0
2017-09-13T00:03:23.647Z,0
2017-09-13T00:04:32.305Z,0
2017-09-13T00:05:40.986Z,0
2017-09-13T00:06:49.949Z,0
2017-09-13T00:07:58.918Z,0
2017-09-13T00:09:08.191Z,0
2017-09-13T00:10:17.154Z,0
2017-09-13T00:11:26.125Z,0
2017-09-13T00:12:34.775Z,0
2017-09-13T00:13:44.047Z,0
2017-09-13T00:14:53.010Z,0
2017-09-13T00:16:01.970Z,0
2017-09-13T00:17:11.250Z,0
2017-09-13T00:18:20.236Z,0
2017-09-13T00:19:29.195Z,0
2017-09-13T00:20:38.471Z,0
2017-09-13T00:21:47.426Z,0
2017-09-13T00:22:56.694Z,0
2017-09-13T00:24:05.664Z,0
2017-09-13T00:25:15.483Z,0
2017-09-13T00:26:24.783Z,0
2017-09-13T00:27:33.748Z,0
2017-09-13T00:28:42.706Z,0
2017-09-13T00:29:52.312Z,0
2017-09-13T00:31:01.908Z,0
2017-09-13T00:32:11.188Z,0
2017-09-13T00:33:20.474Z,0
2017-09-13T00:34:29.436Z,0
2017-09-13T00:35:39.042Z,0
2017-09-13T00:36:47.695Z,0
2017-09-13T00:37:56.354Z,0
2017-09-13T00:39:05.961Z,0
2017-09-13T00:40:14.604Z,0
2017-09-13T00:41:23.570Z,0
2017-09-13T00:42:32.863Z,0
2017-09-13T00:43:41.817Z,0
2017-09-13T00:44:50.784Z,0
2017-09-13T00:45:59.758Z,0
2017-09-13T00:47:08.736Z,0
2017-09-13T00:48:18.326Z,0
2017-09-13T00:49:26.978Z,0
2017-09-13T00:50:36.257Z,0
2017-09-13T00:51:45.541Z,0
2017-09-13T00:52:54.501Z,0
2017-09-13T00:54:03.783Z,0
2017-09-13T00:55:12.749Z,0
2017-09-13T00:56:22.067Z,0
2017-09-13T00:57:31.041Z,0
2017-09-13T00:58:40.329Z,0
2017-09-13T00:59:49.923Z,0
2017-09-13T01:00:58.879Z,0
2017-09-13T01:02:07.850Z,0
2017-09-13T01:03:16.532Z,0
2017-09-13T01:04:25.820Z,0
2017-09-13T01:05:34.824Z,0
2017-09-13T01:06:43.816Z,0
2017-09-13T01:07:52.496Z,0
2017-09-13T01:09:01.801Z,0
2017-09-13T01:10:10.457Z,0
2017-09-13T01:11:19.420Z,0
2017-09-13T01:12:28.690Z,0
2017-09-13T01:13:37.982Z,0
2017-09-13T01:14:46.952Z,0
2017-09-13T01:15:56.221Z,0
2017-09-13T01:17:05.204Z,0
2017-09-13T01:18:15.049Z,0
2017-09-13T01:19:23.881Z,0
2017-09-13T01:20:33.277Z,0
2017-09-13T01:21:42.230Z,0
2017-09-13T01:22:50.884Z,0
2017-09-13T01:23:59.608Z,0
2017-09-13T01:25:08.253Z,0
2017-09-13T01:26:17.230Z,0
2017-09-13T01:27:25.914Z,0
2017-09-13T01:28:35.625Z,0
2017-09-13T01:29:44.759Z,0
2017-09-13T01:30:54.448Z,0
2017-09-13T01:32:03.847Z,0
2017-09-13T01:33:12.569Z,0
2017-09-13T01:34:21.326Z,0
2017-09-13T01:35:30.378Z,0
2017-09-13T01:36:39.758Z,0
2017-09-13T01:37:48.505Z,0
2017-09-13T01:38:57.167Z,0
2017-09-13T01:40:06.767Z,0
2017-09-13T01:41:16.350Z,0
2017-09-13T01:42:25.307Z,0
2017-09-13T01:43:34.585Z,0
2017-09-13T01:44:44.191Z,0
2017-09-13T01:45:53.463Z,0
2017-09-13T01:47:03.086Z,0
2017-09-13T01:48:12.045Z,0
2017-09-13T01:49:21.316Z,0
2017-09-13T01:50:29.961Z,0
2017-09-13T01:51:38.607Z,0
2017-09-13T01:52:47.598Z,0
2017-09-13T01:53:56.621Z,0
2017-09-13T01:55:05.590Z,0
2017-09-13T01:56:14.883Z,0
2017-09-13T01:57:23.847Z,0
2017-09-13T01:58:32.816Z,0
2017-09-13T01:59:41.791Z,0
2017-09-13T02:00:51.385Z,0
2017-09-13T02:02:00.665Z,0
2017-09-13T02:03:09.476Z,0
2017-09-13T02:04:18.123Z,0
2017-09-13T02:05:27.400Z,0
2017-09-13T02:06:36.375Z,0
2017-09-13T02:07:45.337Z,0
2017-09-13T02:08:53.998Z,0
2017-09-13T02:10:02.663Z,0
2017-09-13T02:11:11.941Z,0
2017-09-13T02:12:20.903Z,0
2017-09-13T02:13:29.553Z,0
2017-09-13T02:14:38.544Z,0
2017-09-13T02:15:47.829Z,0
2017-09-13T02:16:56.822Z,0
2017-09-13T02:18:05.797Z,0
2017-09-13T02:19:14.763Z,0
2017-09-13T02:20:24.037Z,0
2017-09-13T02:21:33.009Z,0
2017-09-13T02:22:41.663Z,0
2017-09-13T02:23:50.647Z,0
2017-09-13T02:24:59.308Z,0
2017-09-13T02:26:08.284Z,0
2017-09-13T02:27:17.566Z,0
2017-09-13T02:28:26.527Z,0
2017-09-13T02:29:35.485Z,0
2017-09-13T02:30:44.447Z,0
2017-09-13T02:31:53.441Z,0
2017-09-13T02:33:02.431Z,0
2017-09-13T02:34:11.388Z,0
2017-09-13T02:35:20.061Z,0
2017-09-13T02:36:28.722Z,0
2017-09-13T02:37:37.688Z,0
2017-09-13T02:38:46.649Z,0
2017-09-13T02:39:55.674Z,0
2017-09-13T02:41:04.312Z,0
2017-09-13T02:42:14.214Z,0
2017-09-13T02:43:23.873Z,0
2017-09-13T02:44:33.138Z,0
2017-09-13T02:45:42.099Z,0
2017-09-13T02:46:51.064Z,0
2017-09-13T02:48:00.354Z,0
2017-09-13T02:49:09.649Z,0
2017-09-13T02:50:18.937Z,0
2017-09-13T02:51:27.924Z,0
2017-09-13T02:52:36.894Z,0
2017-09-13T02:53:45.889Z,0
2017-09-13T02:54:54.860Z,0
2017-09-13T02:56:03.840Z,0
2017-09-13T02:57:13.142Z,0
2017-09-13T02:58:21.801Z,0
2017-09-13T02:59:30.770Z,0
2017-09-13T03:00:40.359Z,0
2017-09-13T03:01:49.320Z,0
2017-09-13T03:02:58.600Z,0
2017-09-13T03:04:07.573Z,0
2017-09-13T03:05:16.555Z,0
2017-09-13T03:06:25.536Z,0
2017-09-13T03:07:34.499Z,0
2017-09-13T03:08:43.795Z,0
2017-09-13T03:09:53.389Z,0
2017-09-13T03:11:02.980Z,0
2017-09-13T03:12:11.946Z,0
2017-09-13T03:13:20.910Z,0
2017-09-13T03:14:29.879Z,0
2017-09-13T03:15:38.559Z,0
2017-09-13T03:16:47.198Z,0
2017-09-13T03:17:56.787Z,0
2017-09-13T03:19:05.745Z,0
2017-09-13T03:20:15.697Z,0
2017-09-13T03:21:24.971Z,0
2017-09-13T03:22:33.926Z,0
2017-09-13T03:23:42.903Z,0
2017-09-13T03:24:51.881Z,0
2017-09-13T03:26:01.181Z,0
2017-09-13T03:27:10.790Z,0
2017-09-13T03:28:19.747Z,0
2017-09-13T03:29:29.029Z,0
2017-09-13T03:30:37.684Z,0
2017-09-13T03:31:46.985Z,0
2017-09-13T03:32:55.639Z,0
2017-09-13T03:34:04.596Z,0
2017-09-13T03:35:13.884Z,0
2017-09-13T03:36:23.173Z,0
2017-09-13T03:37:32.140Z,0
2017-09-13T03:38:41.135Z,0
2017-09-13T03:39:50.418Z,0
2017-09-13T03:40:59.378Z,0
2017-09-13T03:42:08.670Z,0
2017-09-13T03:43:17.951Z,0
2017-09-13T03:44:26.618Z,0
2017-09-13T03:45:35.285Z,0
2017-09-13T03:46:44.245Z,0
2017-09-13T03:47:53.218Z,0
2017-09-13T03:49:01.871Z,0
2017-09-13T03:50:11.162Z,0
2017-09-13T03:51:20.430Z,0
2017-09-13T03:52:29.072Z,0
2017-09-13T03:53:38.046Z,0
2017-09-13T03:54:47.659Z,0
2017-09-13T03:55:56.629Z,0
2017-09-13T03:57:05.906Z,0
2017-09-13T03:58:14.877Z,0
2017-09-13T03:59:24.160Z,0
2017-09-13T04:00:33.135Z,0
2017-09-13T04:01:42.198Z,0
2017-09-13T04:02:51.505Z,0
2017-09-13T04:04:00.464Z,0
2017-09-13T04:05:09.421Z,0
2017-09-13T04:06:18.381Z,0
2017-09-13T04:07:27.347Z,0
2017-09-13T04:08:37.246Z,0
2017-09-13T04:09:45.897Z,0
2017-09-13T04:10:55.492Z,0
2017-09-13T04:12:04.464Z,0
2017-09-13T04:13:14.053Z,0
2017-09-13T04:14:23.337Z,0
2017-09-13T04:15:32.307Z,0
2017-09-13T04:16:41.599Z,0
2017-09-13T04:17:50.247Z,0
2017-09-13T04:18:59.211Z,0
2017-09-13T04:20:08.184Z,0
2017-09-13T04:21:17.154Z,0
2017-09-13T04:22:26.111Z,0
2017-09-13T04:23:35.408Z,0
2017-09-13T04:24:45.007Z,0
2017-09-13T04:25:53.968Z,0
2017-09-13T04:27:03.247Z,0
2017-09-13T04:28:12.509Z,0
2017-09-13T04:29:21.786Z,0
2017-09-13T04:30:30.755Z,0
2017-09-13T04:31:40.360Z,0
2017-09-13T04:32:49.321Z,0
2017-09-13T04:33:58.291Z,0
2017-09-13T04:35:07.885Z,0
2017-09-13T04:36:16.841Z,0
2017-09-13T04:37:25.810Z,0
2017-09-13T04:38:34.764Z,0
2017-09-13T04:39:43.406Z,0
2017-09-13T04:40:52.363Z,0
2017-09-13T04:42:01.343Z,0
2017-09-13T04:43:10.648Z,0
2017-09-13T04:44:19.294Z,0
2017-09-13T04:45:28.267Z,0
2017-09-13T04:46:37.857Z,0
2017-09-13T04:47:46.832Z,0
2017-09-13T04:48:55.494Z,0
2017-09-13T04:50:04.467Z,0
2017-09-13T04:51:13.435Z,0
2017-09-13T04:52:22.714Z,0
2017-09-13T04:53:31.679Z,0
2017-09-13T04:54:40.640Z,4
2017-09-13T04:55:49.278Z,4
2017-09-13T04:56:58.870Z,4
2017-09-13T04:58:08.154Z,4
2017-09-13T04:59:17.430Z,4
2017-09-13T05:00:26.407Z,4
2017-09-13T05:01:35.056Z,8
2017-09-13T05:02:44.344Z,8
2017-09-13T05:03:53.318Z,8
2017-09-13T05:05:02.365Z,12
2017-09-13T05:06:11.336Z,12
2017-09-13T05:07:20.309Z,12
2017-09-13T05:08:29.595Z,16
2017-09-13T05:09:39.513Z,16
2017-09-13T05:10:48.848Z,20
2017-09-13T05:11:57.837Z,24
2017-09-13T05:13:07.120Z,32
2017-09-13T05:14:16.389Z,40
2017-09-13T05:15:25.989Z,44
2017-09-13T05:16:34.953Z,32
2017-09-13T05:17:43.604Z,44
2017-09-13T05:18:52.247Z,48
2017-09-13T05:20:00.912Z,48
2017-09-13T05:21:09.638Z,60
2017-09-13T05:22:18.596Z,60
2017-09-13T05:23:27.241Z,56
2017-09-13T05:24:36.521Z,48
2017-09-13T05:25:45.180Z,52
2017-09-13T05:26:53.835Z,60
2017-09-13T05:28:03.170Z,72
2017-09-13T05:29:12.754Z,64
2017-09-13T05:30:21.420Z,56
2017-09-13T05:31:30.701Z,60
2017-09-13T05:32:40.630Z,76
2017-09-13T05:33:49.913Z,100
2017-09-13T05:34:58.878Z,144
2017-09-13T05:36:08.144Z,200
2017-09-13T05:37:16.805Z,204
2017-09-13T05:38:26.088Z,100
2017-09-13T05:39:35.369Z,96
2017-09-13T05:40:44.418Z,104
2017-09-13T05:41:53.078Z,100
2017-09-13T05:43:02.359Z,104
2017-09-13T05:44:11.639Z,100
2017-09-13T05:45:20.925Z,124
2017-09-13T05:46:30.238Z,116
2017-09-13T05:47:39.524Z,124
2017-09-13T05:48:48.815Z,164
2017-09-13T05:49:58.402Z,132
2017-09-13T05:51:07.378Z,152
2017-09-13T05:52:16.350Z,152
2017-09-13T05:53:25.629Z,212
2017-09-13T05:54:34.596Z,352
2017-09-13T05:55:43.576Z,352
2017-09-13T05:56:52.563Z,472
2017-09-13T05:58:01.544Z,668
2017-09-13T05:59:11.147Z,224
2017-09-13T06:00:20.111Z,160
2017-09-13T06:01:29.107Z,156
2017-09-13T06:02:38.091Z,200
2017-09-13T06:03:47.060Z,168
2017-09-13T06:04:56.039Z,168
2017-09-13T06:06:05.631Z,280
2017-09-13T06:07:14.594Z,224
2017-09-13T06:08:23.551Z,232
2017-09-13T06:09:32.519Z,296
2017-09-13T06:10:42.743Z,432
2017-09-13T06:11:51.711Z,348
2017-09-13T06:13:01.009Z,224
2017-09-13T06:14:09.991Z,288
2017-09-13T06:15:18.982Z,336
2017-09-13T06:16:28.240Z,268
2017-09-13T06:17:37.837Z,340
2017-09-13T06:18:47.110Z,268
2017-09-13T06:19:55.752Z,204
2017-09-13T06:21:05.334Z,196
2017-09-13T06:22:14.336Z,280
2017-09-13T06:23:23.625Z,144
2017-09-13T06:24:32.592Z,156
2017-09-13T06:25:41.884Z,288
2017-09-13T06:26:50.523Z,268
2017-09-13T06:27:59.805Z,288
2017-09-13T06:29:08.774Z,216
2017-09-13T06:30:18.053Z,208
2017-09-13T06:31:27.011Z,176
2017-09-13T06:32:35.659Z,160
2017-09-13T06:33:44.628Z,232
2017-09-13T06:34:53.974Z,268
2017-09-13T06:36:02.614Z,336
2017-09-13T06:37:12.209Z,444
2017-09-13T06:38:21.803Z,524
2017-09-13T06:39:30.769Z,856
2017-09-13T06:40:39.753Z,548
2017-09-13T06:41:48.704Z,1108
2017-09-13T06:42:57.365Z,808
2017-09-13T06:44:06.669Z,1632
2017-09-13T06:45:15.317Z,936
2017-09-13T06:46:24.586Z,764
2017-09-13T06:47:33.865Z,940
2017-09-13T06:48:42.503Z,1208
2017-09-13T06:49:51.769Z,716
2017-09-13T06:51:00.752Z,1432
2017-09-13T06:52:10.039Z,1616
2017-09-13T06:53:19.347Z,1092
2017-09-13T06:54:28.638Z,1552
2017-09-13T06:55:37.914Z,1304
2017-09-13T06:56:47.186Z,1816
2017-09-13T06:57:56.139Z,1956
2017-09-13T06:59:05.096Z,1752
2017-09-13T07:00:14.695Z,1932
2017-09-13T07:01:23.967Z,2024
2017-09-13T07:02:32.925Z,1880
2017-09-13T07:03:41.565Z,2188
2017-09-13T07:04:50.545Z,2908
2017-09-13T07:05:59.521Z,2036
2017-09-13T07:07:08.496Z,1916
2017-09-13T07:08:17.777Z,1748
2017-09-13T07:09:27.062Z,1596
2017-09-13T07:10:36.043Z,1492
2017-09-13T07:11:45.324Z,2068
2017-09-13T07:12:54.606Z,2020
2017-09-13T07:14:03.279Z,1604
2017-09-13T07:15:12.239Z,1676
2017-09-13T07:16:20.887Z,1652
2017-09-13T07:17:29.859Z,1688
2017-09-13T07:18:38.824Z,1324
2017-09-13T07:19:47.785Z,1732
2017-09-13T07:20:56.749Z,1832
2017-09-13T07:22:06.045Z,2104
2017-09-13T07:23:15.020Z,2436
2017-09-13T07:24:23.991Z,2200
2017-09-13T07:25:32.953Z,1944
2017-09-13T07:26:41.934Z,1712
2017-09-13T07:27:50.925Z,1716
2017-09-13T07:28:59.894Z,1808
2017-09-13T07:30:08.877Z,1896
2017-09-13T07:31:17.852Z,1932
2017-09-13T07:32:27.158Z,1964
2017-09-13T07:33:36.149Z,1900
2017-09-13T07:34:44.826Z,1836
2017-09-13T07:35:53.550Z,1832
2017-09-13T07:37:03.155Z,1848
2017-09-13T07:38:11.810Z,1936
2017-09-13T07:39:20.504Z,1992
2017-09-13T07:40:29.192Z,2040
2017-09-13T07:41:38.479Z,2096
2017-09-13T07:42:47.456Z,2052
2017-09-13T07:43:56.444Z,1944
2017-09-13T07:45:05.404Z,1800
2017-09-13T07:46:14.088Z,1772
2017-09-13T07:47:23.050Z,1756
2017-09-13T07:48:31.702Z,1740
2017-09-13T07:49:41.318Z,1732
2017-09-13T07:50:50.603Z,1728
2017-09-13T07:52:00.205Z,1720
2017-09-13T07:53:09.488Z,1764
2017-09-13T07:54:18.792Z,1820
2017-09-13T07:55:28.406Z,2004
2017-09-13T07:56:37.699Z,2156
2017-09-13T07:57:46.686Z,2324
2017-09-13T07:58:55.671Z,2576
2017-09-13T08:00:04.334Z,3200
2017-09-13T08:01:13.638Z,2792
2017-09-13T08:02:22.294Z,1736
2017-09-13T08:03:31.284Z,1000
2017-09-13T08:04:40.587Z,772
2017-09-13T08:05:49.547Z,1000
2017-09-13T08:06:58.508Z,992
2017-09-13T08:08:07.160Z,1120
2017-09-13T08:09:16.119Z,1148
2017-09-13T08:10:24.766Z,2196
2017-09-13T08:11:34.431Z,1364
2017-09-13T08:12:43.406Z,1648
2017-09-13T08:13:52.704Z,2748
2017-09-13T08:15:02.311Z,2716
2017-09-13T08:16:11.279Z,3072
2017-09-13T08:17:21.198Z,1820
2017-09-13T08:18:30.472Z,2100
2017-09-13T08:19:39.451Z,2176
2017-09-13T08:20:48.127Z,2888
2017-09-13T08:21:57.408Z,2240
2017-09-13T08:23:06.386Z,2376
2017-09-13T08:24:15.042Z,2544
2017-09-13T08:25:23.710Z,2460
2017-09-13T08:26:33.000Z,2624
2017-09-13T08:27:41.665Z,2528
2017-09-13T08:28:50.651Z,2792
2017-09-13T08:30:00.255Z,2372
2017-09-13T08:31:09.911Z,3272
2017-09-13T08:32:18.561Z,2592
2017-09-13T08:33:27.218Z,1992
2017-09-13T08:34:36.880Z,2296
2017-09-13T08:35:45.535Z,1720
2017-09-13T08:36:54.819Z,2176
2017-09-13T08:38:04.118Z,2668
2017-09-13T08:39:12.767Z,2292
2017-09-13T08:40:22.044Z,2936
2017-09-13T08:41:31.330Z,3136
2017-09-13T08:42:40.952Z,3384
2017-09-13T08:43:50.236Z,3376
2017-09-13T08:44:59.210Z,3524
2017-09-13T08:46:08.508Z,3608
2017-09-13T08:47:17.175Z,4156
2017-09-13T08:48:25.895Z,3832
2017-09-13T08:49:35.498Z,2824
2017-09-13T08:50:44.471Z,2488
2017-09-13T08:51:53.754Z,2056
2017-09-13T08:53:03.060Z,1780
2017-09-13T08:54:12.370Z,3164
2017-09-13T08:55:21.015Z,3128
2017-09-13T08:56:29.998Z,3532
2017-09-13T08:57:39.284Z,1928
2017-09-13T08:58:47.944Z,1336
2017-09-13T08:59:56.933Z,932
2017-09-13T09:01:05.612Z,1120
2017-09-13T09:02:14.897Z,1048
2017-09-13T09:03:24.191Z,1556
2017-09-13T09:04:33.489Z,3008
2017-09-13T09:05:42.790Z,1984
2017-09-13T09:06:52.071Z,2176
2017-09-13T09:08:01.106Z,1312
2017-09-13T09:09:10.701Z,1432
2017-09-13T09:10:19.366Z,948
2017-09-13T09:11:28.671Z,948
2017-09-13T09:12:37.328Z,752
2017-09-13T09:13:45.993Z,712
2017-09-13T09:14:54.977Z,736
2017-09-13T09:16:04.601Z,804
2017-09-13T09:17:13.593Z,668
2017-09-13T09:18:22.572Z,1284
2017-09-13T09:19:32.185Z,1408
2017-09-13T09:20:41.173Z,1108
2017-09-13T09:21:50.154Z,1200
2017-09-13T09:22:59.755Z,1264
2017-09-13T09:24:09.383Z,876
2017-09-13T09:25:18.685Z,848
2017-09-13T09:26:27.963Z,904
2017-09-13T09:27:36.946Z,888
2017-09-13T09:28:46.230Z,812
2017-09-13T09:29:54.890Z,828
2017-09-13T09:31:03.856Z,904
2017-09-13T09:32:12.820Z,648
2017-09-13T09:33:22.115Z,764
2017-09-13T09:34:31.412Z,1464
2017-09-13T09:35:40.388Z,876
2017-09-13T09:36:49.366Z,764
2017-09-13T09:37:58.034Z,840
2017-09-13T09:39:07.971Z,1052
2017-09-13T09:40:16.750Z,968
2017-09-13T09:41:26.046Z,940
2017-09-13T09:42:35.018Z,988
2017-09-13T09:43:44.471Z,1104
2017-09-13T09:44:53.200Z,1356
2017-09-13T09:46:02.512Z,1300
2017-09-13T09:47:11.186Z,1388
2017-09-13T09:48:20.811Z,1408
2017-09-13T09:49:30.105Z,1228
2017-09-13T09:50:39.093Z,1224
2017-09-13T09:51:48.063Z,1436
2017-09-13T09:52:57.027Z,1684
2017-09-13T09:54:05.684Z,2152
2017-09-13T09:55:15.320Z,1232
2017-09-13T09:56:24.628Z,800
2017-09-13T09:57:33.608Z,888
2017-09-13T09:58:42.586Z,1256
2017-09-13T09:59:51.870Z,1472
2017-09-13T10:01:00.853Z,1384
2017-09-13T10:02:09.849Z,1580
2017-09-13T10:03:19.134Z,1756
2017-09-13T10:04:28.476Z,1368
2017-09-13T10:05:37.463Z,1308
2017-09-13T10:06:46.114Z,1200
2017-09-13T10:07:55.091Z,1128
2017-09-13T10:09:04.692Z,1368
2017-09-13T10:10:13.372Z,1316
2017-09-13T10:11:22.999Z,1708
2017-09-13T10:12:32.923Z,1500
2017-09-13T10:13:41.606Z,1120
2017-09-13T10:14:50.297Z,1548
2017-09-13T10:15:58.948Z,1832
2017-09-13T10:17:08.231Z,2056
2017-09-13T10:18:17.206Z,2696
2017-09-13T10:19:26.355Z,2244
2017-09-13T10:20:35.534Z,1556
2017-09-13T10:21:44.669Z,1180
2017-09-13T10:22:53.976Z,1220
2017-09-13T10:24:03.274Z,1076
2017-09-13T10:25:12.253Z,972
2017-09-13T10:26:21.868Z,1068
2017-09-13T10:27:30.846Z,1176
2017-09-13T10:28:39.862Z,1196
2017-09-13T10:29:48.837Z,1288
2017-09-13T10:30:57.833Z,1464
2017-09-13T10:32:06.800Z,1748
2017-09-13T10:33:15.792Z,1700
2017-09-13T10:34:25.711Z,1796
2017-09-13T10:35:34.683Z,2108
2017-09-13T10:36:43.985Z,1836
2017-09-13T10:37:52.624Z,2516
2017-09-13T10:39:01.294Z,1580
2017-09-13T10:40:09.945Z,1740
2017-09-13T10:41:19.550Z,2564
2017-09-13T10:42:28.518Z,2660
2017-09-13T10:43:37.813Z,2216
2017-09-13T10:44:47.424Z,3248
2017-09-13T10:45:56.097Z,2568
2017-09-13T10:47:05.695Z,2284
2017-09-13T10:48:14.722Z,2824
2017-09-13T10:49:23.381Z,2480
2017-09-13T10:50:33.036Z,2044
2017-09-13T10:51:42.329Z,2204
2017-09-13T10:52:51.297Z,2100
2017-09-13T10:54:00.582Z,2048
2017-09-13T10:55:09.867Z,2444
2017-09-13T10:56:18.857Z,1888
2017-09-13T10:57:28.145Z,2036
2017-09-13T10:58:37.752Z,2036
2017-09-13T10:59:47.049Z,932
2017-09-13T11:00:56.344Z,1368
2017-09-13T11:02:05.315Z,2248
2017-09-13T11:03:14.304Z,1592
2017-09-13T11:04:23.601Z,2104
2017-09-13T11:05:33.200Z,1748
2017-09-13T11:06:41.863Z,2164
2017-09-13T11:07:50.517Z,2164
2017-09-13T11:08:59.809Z,2364
2017-09-13T11:10:09.423Z,2808
2017-09-13T11:11:19.051Z,2888
2017-09-13T11:12:28.025Z,3124
2017-09-13T11:13:36.681Z,2732
2017-09-13T11:14:45.658Z,3044
2017-09-13T11:15:54.314Z,2956
2017-09-13T11:17:03.284Z,1748
2017-09-13T11:18:12.572Z,1132
2017-09-13T11:19:21.553Z,1704
2017-09-13T11:20:30.530Z,2320
2017-09-13T11:21:39.514Z,1908
2017-09-13T11:22:48.805Z,2040
2017-09-13T11:23:57.797Z,2120
2017-09-13T11:25:06.473Z,2244
2017-09-13T11:26:15.758Z,1504
2017-09-13T11:27:25.368Z,1676
2017-09-13T11:28:34.649Z,1912
2017-09-13T11:29:43.629Z,2068
2017-09-13T11:30:52.608Z,1680
2017-09-13T11:32:01.894Z,2216
2017-09-13T11:33:10.548Z,1480
2017-09-13T11:34:19.908Z,1868
2017-09-13T11:35:28.883Z,1968
2017-09-13T11:36:37.547Z,1592
2017-09-13T11:37:46.511Z,2000
2017-09-13T11:38:55.170Z,1860
2017-09-13T11:40:03.854Z,1908
2017-09-13T11:41:12.828Z,1504
2017-09-13T11:42:22.114Z,1656
2017-09-13T11:43:31.723Z,1740
2017-09-13T11:44:40.996Z,2288
2017-09-13T11:45:50.705Z,1952
2017-09-13T11:46:59.686Z,2552
2017-09-13T11:48:09.315Z,2428
2017-09-13T11:49:18.925Z,2748
2017-09-13T11:50:28.212Z,2684
2017-09-13T11:51:37.176Z,2288
2017-09-13T11:52:45.852Z,2004
2017-09-13T11:53:55.448Z,2236
2017-09-13T11:55:04.124Z,2752
2017-09-13T11:56:13.771Z,2424
2017-09-13T11:57:23.706Z,2248
2017-09-13T11:58:32.711Z,2428
2017-09-13T11:59:42.015Z,2164
2017-09-13T12:00:50.667Z,2496
2017-09-13T12:01:59.642Z,2572
2017-09-13T12:03:08.319Z,2184
2017-09-13T12:04:16.981Z,2284
2017-09-13T12:05:25.979Z,2448
2017-09-13T12:06:35.256Z,2280
2017-09-13T12:07:44.241Z,2696
2017-09-13T12:08:53.536Z,2752
2017-09-13T12:10:02.185Z,2544
2017-09-13T12:11:11.483Z,1940
2017-09-13T12:12:21.087Z,1972
2017-09-13T12:13:30.071Z,2124
2017-09-13T12:14:39.362Z,2328
2017-09-13T12:15:48.377Z,2292
2017-09-13T12:16:57.341Z,2228
2017-09-13T12:18:06.644Z,1780
2017-09-13T12:19:15.936Z,1596
2017-09-13T12:20:24.999Z,1464
2017-09-13T12:21:33.992Z,1512
2017-09-13T12:22:43.278Z,1764
2017-09-13T12:23:52.591Z,2024
2017-09-13T12:25:01.561Z,2060
2017-09-13T12:26:11.159Z,1972
2017-09-13T12:27:20.118Z,1536
2017-09-13T12:28:29.716Z,2096
2017-09-13T12:29:38.376Z,2836
2017-09-13T12:30:47.353Z,2212
2017-09-13T12:31:56.326Z,1996
2017-09-13T12:33:05.291Z,2292
2017-09-13T12:34:14.276Z,1828
2017-09-13T12:37:55.931Z,1816
2017-09-13T12:39:04.582Z,1564
2017-09-13T12:40:13.886Z,1628
2017-09-13T12:41:22.967Z,1600
2017-09-13T12:42:32.257Z,2312
2017-09-13T12:43:41.230Z,2500
2017-09-13T12:44:50.213Z,2344
2017-09-13T12:45:59.199Z,2212
2017-09-13T12:47:08.167Z,2408
2017-09-13T12:48:17.451Z,2084
2017-09-13T12:49:26.117Z,1544
2017-09-13T12:50:35.096Z,1936
2017-09-13T12:51:44.398Z,1840
2017-09-13T12:52:54.028Z,1812
2017-09-13T12:54:03.311Z,2024
2017-09-13T12:55:12.616Z,2020
2017-09-13T12:56:21.603Z,2212
2017-09-13T12:57:30.560Z,2044
2017-09-13T12:58:39.547Z,1764
2017-09-13T12:59:48.552Z,2080
2017-09-13T13:00:58.157Z,1952
2017-09-13T13:02:06.867Z,2120
2017-09-13T13:03:16.163Z,2232
2017-09-13T13:04:25.661Z,2132
2017-09-13T13:05:34.982Z,1760
2017-09-13T13:06:43.954Z,1856
2017-09-13T13:07:52.922Z,2136
2017-09-13T13:09:01.900Z,1820
2017-09-13T13:10:10.871Z,1972
2017-09-13T13:11:19.832Z,2420
2017-09-13T13:12:29.434Z,2560
2017-09-13T13:13:38.401Z,2556
2017-09-13T13:14:47.379Z,2568
2017-09-13T13:15:56.358Z,2364
2017-09-13T13:17:05.640Z,2844
2017-09-13T13:18:14.935Z,2896
2017-09-13T13:19:23.915Z,2304
2017-09-13T13:20:33.203Z,2056
2017-09-13T13:21:42.179Z,1536
2017-09-13T13:22:51.800Z,1460
2017-09-13T13:24:00.786Z,1792
2017-09-13T13:25:09.764Z,1472
2017-09-13T13:26:18.419Z,1856
2017-09-13T13:27:27.392Z,1528
2017-09-13T13:28:36.061Z,1656
2017-09-13T13:29:45.657Z,1900
2017-09-13T13:30:54.651Z,1456
2017-09-13T13:32:03.331Z,1812
2017-09-13T13:33:12.015Z,1352
2017-09-13T13:34:20.691Z,1740
2017-09-13T13:35:29.360Z,1176
2017-09-13T13:36:38.658Z,1160
2017-09-13T13:37:47.666Z,1032
2017-09-13T13:38:56.694Z,1108
2017-09-13T13:40:06.013Z,1284
2017-09-13T13:41:14.668Z,1136
2017-09-13T13:42:23.957Z,912
2017-09-13T13:43:32.622Z,832
2017-09-13T13:44:41.608Z,880
2017-09-13T13:45:50.885Z,700
2017-09-13T13:46:59.880Z,604
2017-09-13T13:48:09.177Z,556
2017-09-13T13:49:17.837Z,664
2017-09-13T13:50:26.488Z,572
2017-09-13T13:51:35.461Z,692
2017-09-13T13:52:44.131Z,852
2017-09-13T13:53:52.794Z,836
2017-09-13T13:55:02.081Z,728
2017-09-13T13:56:11.368Z,576
2017-09-13T13:57:20.332Z,552
2017-09-13T13:58:29.630Z,616
2017-09-13T13:59:38.609Z,596
2017-09-13T14:00:47.594Z,688
2017-09-13T14:01:56.888Z,868
2017-09-13T14:03:05.915Z,616
2017-09-13T14:04:14.900Z,828
2017-09-13T14:05:23.878Z,604
2017-09-13T14:06:32.528Z,580
2017-09-13T14:07:41.509Z,660
2017-09-13T14:08:50.820Z,624
2017-09-13T14:10:00.111Z,504
2017-09-13T14:11:09.400Z,336
2017-09-13T14:12:19.010Z,300
2017-09-13T14:13:27.673Z,204
2017-09-13T14:14:36.636Z,228
2017-09-13T14:15:45.594Z,240
2017-09-13T14:16:54.257Z,188
2017-09-13T14:18:02.991Z,160
2017-09-13T14:19:11.967Z,188
2017-09-13T14:20:20.934Z,236
2017-09-13T14:21:29.935Z,380
2017-09-13T14:22:38.913Z,456
2017-09-13T14:23:47.899Z,456
2017-09-13T14:24:56.890Z,476
2017-09-13T14:26:05.867Z,460
2017-09-13T14:27:14.846Z,492
2017-09-13T14:28:24.150Z,476
2017-09-13T14:29:33.432Z,508
2017-09-13T14:30:42.401Z,612
2017-09-13T14:31:52.085Z,460
2017-09-13T14:33:01.069Z,344
2017-09-13T14:34:10.347Z,340
2017-09-13T14:35:19.333Z,364
2017-09-13T14:36:28.666Z,384
2017-09-13T14:37:37.324Z,372
2017-09-13T14:38:46.296Z,384
2017-09-13T14:39:55.597Z,356
2017-09-13T14:41:04.887Z,380
2017-09-13T14:42:13.545Z,444
2017-09-13T14:43:22.574Z,476
2017-09-13T14:44:31.888Z,328
2017-09-13T14:45:40.858Z,360
2017-09-13T14:46:50.160Z,376
2017-09-13T14:47:59.125Z,496
2017-09-13T14:49:08.131Z,464
2017-09-13T14:50:17.115Z,436
2017-09-13T14:51:25.773Z,788
2017-09-13T14:52:34.745Z,1124
2017-09-13T14:53:43.418Z,1296
2017-09-13T14:54:52.403Z,1432
2017-09-13T14:56:01.721Z,1644
2017-09-13T14:57:11.324Z,1596
2017-09-13T14:58:20.612Z,1600
2017-09-13T14:59:29.588Z,1548
2017-09-13T15:00:39.191Z,1352
2017-09-13T15:01:48.474Z,1112
2017-09-13T15:02:58.086Z,880
2017-09-13T15:04:07.372Z,768
2017-09-13T15:05:16.056Z,720
2017-09-13T15:06:24.720Z,668
2017-09-13T15:07:33.717Z,624
2017-09-13T15:08:42.678Z,608
2017-09-13T15:09:51.369Z,600
2017-09-13T15:11:00.683Z,600
2017-09-13T15:12:09.997Z,600
2017-09-13T15:13:19.298Z,604
2017-09-13T15:14:28.596Z,556
2017-09-13T15:15:37.581Z,496
2017-09-13T15:16:46.871Z,508
2017-09-13T15:17:55.833Z,640
2017-09-13T15:19:04.802Z,632
2017-09-13T15:20:13.450Z,788
2017-09-13T15:21:22.433Z,992
2017-09-13T15:22:31.393Z,684
2017-09-13T15:23:40.052Z,596
2017-09-13T15:24:49.034Z,628
2017-09-13T15:25:58.321Z,796
2017-09-13T15:27:07.484Z,984
2017-09-13T15:28:17.063Z,880
2017-09-13T15:29:26.967Z,864
2017-09-13T15:30:36.663Z,852
2017-09-13T15:31:45.841Z,780
2017-09-13T15:32:55.214Z,660
2017-09-13T15:34:04.571Z,576
2017-09-13T15:35:13.853Z,404
2017-09-13T15:36:22.837Z,416
2017-09-13T15:37:31.496Z,436
2017-09-13T15:38:40.795Z,392
2017-09-13T15:39:50.158Z,404
2017-09-13T15:40:58.888Z,380
2017-09-13T15:42:07.952Z,364
2017-09-13T15:43:16.993Z,300
2017-09-13T15:44:26.704Z,292
2017-09-13T15:45:35.685Z,292
2017-09-13T15:46:44.392Z,472
2017-09-13T15:47:53.728Z,880
2017-09-13T15:49:03.034Z,1096
2017-09-13T15:50:12.026Z,1076
2017-09-13T15:51:21.134Z,864
2017-09-13T15:52:30.489Z,924
2017-09-13T15:53:39.947Z,892
2017-09-13T15:54:49.492Z,1048
2017-09-13T15:55:58.967Z,932
2017-09-13T15:57:08.583Z,936
2017-09-13T15:58:17.571Z,1012
2017-09-13T15:59:26.943Z,1032
2017-09-13T16:00:35.629Z,1004
2017-09-13T16:01:45.558Z,1040
2017-09-13T16:02:54.562Z,952